sensor_id;sensor_type;location;lat;lon;timestamp;P1;durP1;ratioP1;P2;durP2;ratioP2
40537;SDS011;27925;41.874;12.526;2022-12-10T00:00:35;51.75;;;7.90;;
40537;SDS011;27925;41.874;12.526;2022-12-10T00:03:00;46.33;;;9.05;;
40537;SDS011;27925;41.874;12.526;2022-12-10T00:05:26;57.13;;;9.15;;
40537;SDS011;27925;41.874;12.526;2022-12-10T00:07:52;55.15;;;8.80;;
40537;SDS011;27925;41.874;12.526;2022-12-10T00:10:18;52.75;;;9.48;;
40537;SDS011;27925;41.874;12.526;2022-12-10T00:12:43;50.58;;;9.40;;
40537;SDS011;27925;41.874;12.526;2022-12-10T00:15:09;41.42;;;8.20;;
40537;SDS011;27925;41.874;12.526;2022-12-10T00:17:35;50.78;;;7.97;;
40537;SDS011;27925;41.874;12.526;2022-12-10T00:20:01;48.65;;;7.68;;
40537;SDS011;27925;41.874;12.526;2022-12-10T00:22:27;42.17;;;6.93;;
40537;SDS011;27925;41.874;12.526;2022-12-10T00:24:52;51.35;;;9.18;;
40537;SDS011;27925;41.874;12.526;2022-12-10T00:27:18;57.88;;;8.30;;
40537;SDS011;27925;41.874;12.526;2022-12-10T00:29:44;46.15;;;7.28;;
40537;SDS011;27925;41.874;12.526;2022-12-10T00:32:09;48.78;;;8.70;;
40537;SDS011;27925;41.874;12.526;2022-12-10T00:34:35;46.10;;;7.53;;
40537;SDS011;27925;41.874;12.526;2022-12-10T00:37:01;35.72;;;7.55;;
40537;SDS011;27925;41.874;12.526;2022-12-10T00:39:27;43.80;;;8.05;;
40537;SDS011;27925;41.874;12.526;2022-12-10T00:41:53;44.92;;;7.70;;
40537;SDS011;27925;41.874;12.526;2022-12-10T00:44:19;59.35;;;9.25;;
40537;SDS011;27925;41.874;12.526;2022-12-10T00:46:45;45.13;;;8.13;;
40537;SDS011;27925;41.874;12.526;2022-12-10T00:49:11;43.83;;;8.15;;
40537;SDS011;27925;41.874;12.526;2022-12-10T00:51:37;49.58;;;8.52;;
40537;SDS011;27925;41.874;12.526;2022-12-10T00:54:03;55.30;;;8.00;;
40537;SDS011;27925;41.874;12.526;2022-12-10T00:56:30;53.88;;;8.98;;
40537;SDS011;27925;41.874;12.526;2022-12-10T00:58:57;76.90;;;10.05;;
40537;SDS011;27925;41.874;12.526;2022-12-10T01:01:31;72.93;;;10.05;;
40537;SDS011;27925;41.874;12.526;2022-12-10T01:03:59;82.80;;;12.32;;
40537;SDS011;27925;41.874;12.526;2022-12-10T01:06:28;75.43;;;11.25;;
40537;SDS011;27925;41.874;12.526;2022-12-10T01:08:59;76.47;;;13.48;;
40537;SDS011;27925;41.874;12.526;2022-12-10T01:11:31;88.40;;;12.50;;
40537;SDS011;27925;41.874;12.526;2022-12-10T01:14:02;78.80;;;11.38;;
40537;SDS011;27925;41.874;12.526;2022-12-10T01:16:29;91.93;;;11.10;;
40537;SDS011;27925;41.874;12.526;2022-12-10T01:18:55;78.13;;;10.43;;
40537;SDS011;27925;41.874;12.526;2022-12-10T01:21:22;79.93;;;12.65;;
40537;SDS011;27925;41.874;12.526;2022-12-10T01:23:49;76.75;;;9.73;;
40537;SDS011;27925;41.874;12.526;2022-12-10T01:26:17;75.80;;;11.73;;
40537;SDS011;27925;41.874;12.526;2022-12-10T01:28:48;85.72;;;14.13;;
40537;SDS011;27925;41.874;12.526;2022-12-10T01:31:17;69.50;;;10.82;;
40537;SDS011;27925;41.874;12.526;2022-12-10T01:33:44;54.33;;;10.10;;
40537;SDS011;27925;41.874;12.526;2022-12-10T01:36:12;72.97;;;10.68;;
40537;SDS011;27925;41.874;12.526;2022-12-10T01:38:42;62.53;;;10.70;;
40537;SDS011;27925;41.874;12.526;2022-12-10T01:41:12;81.70;;;11.05;;
40537;SDS011;27925;41.874;12.526;2022-12-10T01:46:37;76.07;;;10.68;;
40537;SDS011;27925;41.874;12.526;2022-12-10T01:49:05;87.40;;;11.32;;
40537;SDS011;27925;41.874;12.526;2022-12-10T01:51:34;73.25;;;10.68;;
40537;SDS011;27925;41.874;12.526;2022-12-10T01:54:03;71.65;;;12.02;;
40537;SDS011;27925;41.874;12.526;2022-12-10T01:56:36;73.03;;;11.77;;
40537;SDS011;27925;41.874;12.526;2022-12-10T01:59:06;70.15;;;11.45;;
40537;SDS011;27925;41.874;12.526;2022-12-10T02:01:33;72.10;;;11.30;;
40537;SDS011;27925;41.874;12.526;2022-12-10T02:06:38;79.72;;;11.35;;
40537;SDS011;27925;41.874;12.526;2022-12-10T02:12:14;89.28;;;12.10;;
40537;SDS011;27925;41.874;12.526;2022-12-10T02:15:02;69.57;;;11.73;;
40537;SDS011;27925;41.874;12.526;2022-12-10T02:17:38;73.65;;;12.80;;
40537;SDS011;27925;41.874;12.526;2022-12-10T02:20:22;67.07;;;9.45;;
40537;SDS011;27925;41.874;12.526;2022-12-10T02:25:20;68.03;;;9.35;;
40537;SDS011;27925;41.874;12.526;2022-12-10T02:28:03;76.18;;;11.70;;
40537;SDS011;27925;41.874;12.526;2022-12-10T02:30:57;80.85;;;11.20;;
40537;SDS011;27925;41.874;12.526;2022-12-10T02:33:25;66.80;;;10.15;;
40537;SDS011;27925;41.874;12.526;2022-12-10T02:35:54;95.82;;;12.27;;
40537;SDS011;27925;41.874;12.526;2022-12-10T02:38:24;86.57;;;11.85;;
40537;SDS011;27925;41.874;12.526;2022-12-10T02:40:54;99.38;;;12.50;;
40537;SDS011;27925;41.874;12.526;2022-12-10T02:43:35;85.43;;;12.55;;
40537;SDS011;27925;41.874;12.526;2022-12-10T02:46:02;78.15;;;11.20;;
40537;SDS011;27925;41.874;12.526;2022-12-10T02:48:29;97.18;;;13.02;;
40537;SDS011;27925;41.874;12.526;2022-12-10T02:50:57;92.90;;;14.13;;
40537;SDS011;27925;41.874;12.526;2022-12-10T02:53:23;101.70;;;12.75;;
40537;SDS011;27925;41.874;12.526;2022-12-10T02:55:59;95.05;;;13.70;;
40537;SDS011;27925;41.874;12.526;2022-12-10T03:04:22;91.65;;;12.40;;
40537;SDS011;27925;41.874;12.526;2022-12-10T03:07:07;90.88;;;12.60;;
40537;SDS011;27925;41.874;12.526;2022-12-10T03:09:40;93.30;;;11.88;;
40537;SDS011;27925;41.874;12.526;2022-12-10T03:12:20;81.43;;;11.43;;
40537;SDS011;27925;41.874;12.526;2022-12-10T03:14:53;87.53;;;11.80;;
40537;SDS011;27925;41.874;12.526;2022-12-10T03:17:26;86.30;;;13.05;;
40537;SDS011;27925;41.874;12.526;2022-12-10T03:19:53;94.25;;;13.05;;
40537;SDS011;27925;41.874;12.526;2022-12-10T03:22:22;78.40;;;10.70;;
40537;SDS011;27925;41.874;12.526;2022-12-10T03:24:48;83.80;;;12.40;;
40537;SDS011;27925;41.874;12.526;2022-12-10T03:27:15;77.35;;;10.57;;
40537;SDS011;27925;41.874;12.526;2022-12-10T03:29:45;75.95;;;12.15;;
40537;SDS011;27925;41.874;12.526;2022-12-10T03:32:15;64.78;;;12.15;;
40537;SDS011;27925;41.874;12.526;2022-12-10T03:34:43;84.07;;;11.85;;
40537;SDS011;27925;41.874;12.526;2022-12-10T03:37:13;91.88;;;11.90;;
40537;SDS011;27925;41.874;12.526;2022-12-10T03:39:40;73.22;;;11.95;;
40537;SDS011;27925;41.874;12.526;2022-12-10T03:42:06;83.50;;;11.70;;
40537;SDS011;27925;41.874;12.526;2022-12-10T03:44:33;84.85;;;11.88;;
40537;SDS011;27925;41.874;12.526;2022-12-10T03:47:01;68.60;;;11.38;;
40537;SDS011;27925;41.874;12.526;2022-12-10T03:49:29;68.00;;;10.13;;
40537;SDS011;27925;41.874;12.526;2022-12-10T03:51:55;68.75;;;11.55;;
40537;SDS011;27925;41.874;12.526;2022-12-10T03:54:21;67.53;;;10.25;;
40537;SDS011;27925;41.874;12.526;2022-12-10T03:56:47;67.40;;;10.95;;
40537;SDS011;27925;41.874;12.526;2022-12-10T03:59:13;74.00;;;12.55;;
40537;SDS011;27925;41.874;12.526;2022-12-10T04:01:39;72.85;;;11.35;;
40537;SDS011;27925;41.874;12.526;2022-12-10T04:04:06;76.63;;;12.88;;
40537;SDS011;27925;41.874;12.526;2022-12-10T04:06:32;67.38;;;11.23;;
40537;SDS011;27925;41.874;12.526;2022-12-10T04:08:58;82.25;;;11.23;;
40537;SDS011;27925;41.874;12.526;2022-12-10T04:11:24;71.07;;;10.85;;
40537;SDS011;27925;41.874;12.526;2022-12-10T04:13:50;70.10;;;10.40;;
40537;SDS011;27925;41.874;12.526;2022-12-10T04:16:35;68.90;;;12.00;;
40537;SDS011;27925;41.874;12.526;2022-12-10T04:19:12;80.72;;;12.00;;
40537;SDS011;27925;41.874;12.526;2022-12-10T04:21:39;73.78;;;11.18;;
40537;SDS011;27925;41.874;12.526;2022-12-10T04:24:25;73.97;;;11.15;;
40537;SDS011;27925;41.874;12.526;2022-12-10T04:27:12;71.32;;;11.65;;
40537;SDS011;27925;41.874;12.526;2022-12-10T04:29:38;84.90;;;11.40;;
40537;SDS011;27925;41.874;12.526;2022-12-10T04:32:04;73.60;;;11.35;;
40537;SDS011;27925;41.874;12.526;2022-12-10T04:34:30;88.38;;;12.10;;
40537;SDS011;27925;41.874;12.526;2022-12-10T04:36:57;95.15;;;12.77;;
40537;SDS011;27925;41.874;12.526;2022-12-10T04:39:23;85.75;;;11.80;;
40537;SDS011;27925;41.874;12.526;2022-12-10T04:41:49;82.90;;;13.27;;
40537;SDS011;27925;41.874;12.526;2022-12-10T04:44:16;80.85;;;11.30;;
40537;SDS011;27925;41.874;12.526;2022-12-10T04:46:43;89.78;;;13.13;;
40537;SDS011;27925;41.874;12.526;2022-12-10T04:49:09;79.65;;;12.70;;
40537;SDS011;27925;41.874;12.526;2022-12-10T04:51:35;83.90;;;12.82;;
40537;SDS011;27925;41.874;12.526;2022-12-10T04:54:01;74.63;;;11.07;;
40537;SDS011;27925;41.874;12.526;2022-12-10T04:56:27;77.55;;;11.00;;
40537;SDS011;27925;41.874;12.526;2022-12-10T04:58:56;70.38;;;10.65;;
40537;SDS011;27925;41.874;12.526;2022-12-10T05:01:22;70.32;;;11.63;;
40537;SDS011;27925;41.874;12.526;2022-12-10T05:03:48;77.65;;;10.43;;
40537;SDS011;27925;41.874;12.526;2022-12-10T05:06:15;75.45;;;11.13;;
40537;SDS011;27925;41.874;12.526;2022-12-10T05:08:42;67.90;;;10.10;;
40537;SDS011;27925;41.874;12.526;2022-12-10T05:11:14;89.93;;;12.23;;
40537;SDS011;27925;41.874;12.526;2022-12-10T05:13:42;85.05;;;11.45;;
40537;SDS011;27925;41.874;12.526;2022-12-10T05:16:09;75.38;;;13.10;;
40537;SDS011;27925;41.874;12.526;2022-12-10T05:18:36;68.70;;;11.57;;
40537;SDS011;27925;41.874;12.526;2022-12-10T05:21:03;73.80;;;10.77;;
40537;SDS011;27925;41.874;12.526;2022-12-10T05:23:30;78.60;;;10.57;;
40537;SDS011;27925;41.874;12.526;2022-12-10T05:26:15;72.82;;;10.43;;
40537;SDS011;27925;41.874;12.526;2022-12-10T05:28:51;87.82;;;14.23;;
40537;SDS011;27925;41.874;12.526;2022-12-10T05:31:20;77.40;;;10.77;;
40537;SDS011;27925;41.874;12.526;2022-12-10T05:33:48;72.28;;;12.23;;
40537;SDS011;27925;41.874;12.526;2022-12-10T05:36:14;79.10;;;10.68;;
40537;SDS011;27925;41.874;12.526;2022-12-10T05:38:43;86.70;;;10.70;;
40537;SDS011;27925;41.874;12.526;2022-12-10T05:41:13;74.82;;;10.65;;
40537;SDS011;27925;41.874;12.526;2022-12-10T05:43:43;80.35;;;12.57;;
40537;SDS011;27925;41.874;12.526;2022-12-10T05:46:11;78.88;;;10.85;;
40537;SDS011;27925;41.874;12.526;2022-12-10T05:48:42;76.55;;;11.88;;
40537;SDS011;27925;41.874;12.526;2022-12-10T05:51:09;86.07;;;14.10;;
40537;SDS011;27925;41.874;12.526;2022-12-10T05:53:37;71.60;;;11.65;;
40537;SDS011;27925;41.874;12.526;2022-12-10T05:56:05;80.80;;;10.90;;
40537;SDS011;27925;41.874;12.526;2022-12-10T05:58:32;82.70;;;11.55;;
40537;SDS011;27925;41.874;12.526;2022-12-10T06:00:59;83.40;;;12.48;;
40537;SDS011;27925;41.874;12.526;2022-12-10T06:03:26;84.40;;;11.00;;
40537;SDS011;27925;41.874;12.526;2022-12-10T06:05:53;86.47;;;13.43;;
40537;SDS011;27925;41.874;12.526;2022-12-10T06:08:19;77.10;;;12.15;;
40537;SDS011;27925;41.874;12.526;2022-12-10T06:10:44;82.15;;;12.05;;
40537;SDS011;27925;41.874;12.526;2022-12-10T06:13:10;82.07;;;11.43;;
40537;SDS011;27925;41.874;12.526;2022-12-10T06:15:38;72.90;;;12.05;;
40537;SDS011;27925;41.874;12.526;2022-12-10T06:18:05;88.55;;;12.70;;
40537;SDS011;27925;41.874;12.526;2022-12-10T06:20:31;76.20;;;10.68;;
40537;SDS011;27925;41.874;12.526;2022-12-10T06:22:57;84.68;;;11.45;;
40537;SDS011;27925;41.874;12.526;2022-12-10T06:25:23;66.63;;;9.90;;
40537;SDS011;27925;41.874;12.526;2022-12-10T06:27:48;77.15;;;11.52;;
40537;SDS011;27925;41.874;12.526;2022-12-10T06:30:14;75.82;;;12.38;;
40537;SDS011;27925;41.874;12.526;2022-12-10T06:32:40;67.55;;;11.55;;
40537;SDS011;27925;41.874;12.526;2022-12-10T06:35:08;62.72;;;9.77;;
40537;SDS011;27925;41.874;12.526;2022-12-10T06:37:34;82.40;;;11.18;;
40537;SDS011;27925;41.874;12.526;2022-12-10T06:40:00;63.35;;;9.52;;
40537;SDS011;27925;41.874;12.526;2022-12-10T06:42:26;64.47;;;11.43;;
40537;SDS011;27925;41.874;12.526;2022-12-10T06:44:52;73.90;;;10.88;;
40537;SDS011;27925;41.874;12.526;2022-12-10T06:47:18;80.97;;;11.40;;
40537;SDS011;27925;41.874;12.526;2022-12-10T06:49:43;69.65;;;11.32;;
40537;SDS011;27925;41.874;12.526;2022-12-10T06:52:09;67.93;;;9.70;;
40537;SDS011;27925;41.874;12.526;2022-12-10T06:54:35;67.97;;;11.23;;
40537;SDS011;27925;41.874;12.526;2022-12-10T06:57:00;63.00;;;10.15;;
40537;SDS011;27925;41.874;12.526;2022-12-10T06:59:26;63.85;;;10.65;;
40537;SDS011;27925;41.874;12.526;2022-12-10T07:01:52;71.88;;;11.82;;
40537;SDS011;27925;41.874;12.526;2022-12-10T07:04:17;70.25;;;11.60;;
40537;SDS011;27925;41.874;12.526;2022-12-10T07:06:43;67.38;;;10.60;;
40537;SDS011;27925;41.874;12.526;2022-12-10T07:09:09;66.03;;;10.80;;
40537;SDS011;27925;41.874;12.526;2022-12-10T07:11:35;69.88;;;11.90;;
40537;SDS011;27925;41.874;12.526;2022-12-10T07:14:00;69.80;;;10.93;;
40537;SDS011;27925;41.874;12.526;2022-12-10T07:16:27;73.20;;;9.82;;
40537;SDS011;27925;41.874;12.526;2022-12-10T07:18:55;60.53;;;9.85;;
40537;SDS011;27925;41.874;12.526;2022-12-10T07:21:24;66.90;;;10.82;;
40537;SDS011;27925;41.874;12.526;2022-12-10T07:23:54;71.25;;;11.23;;
40537;SDS011;27925;41.874;12.526;2022-12-10T07:26:27;66.60;;;10.40;;
40537;SDS011;27925;41.874;12.526;2022-12-10T07:28:54;65.15;;;10.80;;
40537;SDS011;27925;41.874;12.526;2022-12-10T07:31:20;66.10;;;11.43;;
40537;SDS011;27925;41.874;12.526;2022-12-10T07:33:46;71.57;;;11.30;;
40537;SDS011;27925;41.874;12.526;2022-12-10T07:36:13;58.22;;;10.30;;
40537;SDS011;27925;41.874;12.526;2022-12-10T07:38:39;64.65;;;10.32;;
40537;SDS011;27925;41.874;12.526;2022-12-10T07:41:06;71.88;;;11.35;;
40537;SDS011;27925;41.874;12.526;2022-12-10T07:43:35;68.75;;;10.80;;
40537;SDS011;27925;41.874;12.526;2022-12-10T07:46:07;55.38;;;10.27;;
40537;SDS011;27925;41.874;12.526;2022-12-10T07:48:35;71.82;;;11.00;;
40537;SDS011;27925;41.874;12.526;2022-12-10T07:51:02;77.25;;;10.57;;
40537;SDS011;27925;41.874;12.526;2022-12-10T07:53:28;52.40;;;9.07;;
40537;SDS011;27925;41.874;12.526;2022-12-10T07:55:55;56.70;;;9.27;;
40537;SDS011;27925;41.874;12.526;2022-12-10T07:58:20;61.08;;;9.43;;
40537;SDS011;27925;41.874;12.526;2022-12-10T08:00:46;55.00;;;9.77;;
40537;SDS011;27925;41.874;12.526;2022-12-10T08:03:12;60.47;;;10.18;;
40537;SDS011;27925;41.874;12.526;2022-12-10T08:05:38;49.38;;;9.70;;
40537;SDS011;27925;41.874;12.526;2022-12-10T08:08:04;58.55;;;9.82;;
40537;SDS011;27925;41.874;12.526;2022-12-10T08:10:30;61.35;;;9.30;;
40537;SDS011;27925;41.874;12.526;2022-12-10T08:12:59;56.08;;;9.13;;
40537;SDS011;27925;41.874;12.526;2022-12-10T08:15:25;53.05;;;9.48;;
40537;SDS011;27925;41.874;12.526;2022-12-10T08:17:53;49.20;;;9.30;;
40537;SDS011;27925;41.874;12.526;2022-12-10T08:20:19;52.83;;;9.15;;
40537;SDS011;27925;41.874;12.526;2022-12-10T08:22:45;65.25;;;8.93;;
40537;SDS011;27925;41.874;12.526;2022-12-10T08:25:11;51.47;;;9.73;;
40537;SDS011;27925;41.874;12.526;2022-12-10T08:27:36;54.10;;;10.15;;
40537;SDS011;27925;41.874;12.526;2022-12-10T08:30:02;54.28;;;10.60;;
40537;SDS011;27925;41.874;12.526;2022-12-10T08:32:29;53.03;;;8.48;;
40537;SDS011;27925;41.874;12.526;2022-12-10T08:34:54;45.00;;;8.43;;
40537;SDS011;27925;41.874;12.526;2022-12-10T08:37:20;56.88;;;11.18;;
40537;SDS011;27925;41.874;12.526;2022-12-10T08:39:46;52.95;;;10.02;;
40537;SDS011;27925;41.874;12.526;2022-12-10T08:42:12;49.92;;;9.00;;
40537;SDS011;27925;41.874;12.526;2022-12-10T08:44:38;49.13;;;8.85;;
40537;SDS011;27925;41.874;12.526;2022-12-10T08:47:04;61.95;;;10.45;;
40537;SDS011;27925;41.874;12.526;2022-12-10T08:49:30;63.35;;;10.32;;
40537;SDS011;27925;41.874;12.526;2022-12-10T08:51:56;52.20;;;8.93;;
40537;SDS011;27925;41.874;12.526;2022-12-10T08:54:22;53.63;;;10.27;;
40537;SDS011;27925;41.874;12.526;2022-12-10T08:56:47;54.75;;;8.98;;
40537;SDS011;27925;41.874;12.526;2022-12-10T08:59:13;47.53;;;10.25;;
40537;SDS011;27925;41.874;12.526;2022-12-10T09:01:39;52.53;;;8.57;;
40537;SDS011;27925;41.874;12.526;2022-12-10T09:04:04;58.83;;;10.45;;
40537;SDS011;27925;41.874;12.526;2022-12-10T09:06:30;43.20;;;10.15;;
40537;SDS011;27925;41.874;12.526;2022-12-10T09:08:56;44.85;;;8.18;;
40537;SDS011;27925;41.874;12.526;2022-12-10T09:13:49;50.40;;;9.23;;
40537;SDS011;27925;41.874;12.526;2022-12-10T09:16:15;47.65;;;8.43;;
40537;SDS011;27925;41.874;12.526;2022-12-10T09:18:41;59.75;;;9.90;;
40537;SDS011;27925;41.874;12.526;2022-12-10T09:21:08;50.75;;;9.50;;
40537;SDS011;27925;41.874;12.526;2022-12-10T09:23:35;51.50;;;9.13;;
40537;SDS011;27925;41.874;12.526;2022-12-10T09:26:01;51.47;;;9.15;;
40537;SDS011;27925;41.874;12.526;2022-12-10T09:28:30;54.40;;;10.93;;
40537;SDS011;27925;41.874;12.526;2022-12-10T09:30:56;45.00;;;9.05;;
40537;SDS011;27925;41.874;12.526;2022-12-10T09:33:25;49.65;;;8.85;;
40537;SDS011;27925;41.874;12.526;2022-12-10T09:35:51;52.20;;;9.25;;
40537;SDS011;27925;41.874;12.526;2022-12-10T09:38:17;54.25;;;8.90;;
40537;SDS011;27925;41.874;12.526;2022-12-10T09:40:49;35.70;;;8.20;;
40537;SDS011;27925;41.874;12.526;2022-12-10T09:49:17;42.15;;;7.90;;
40537;SDS011;27925;41.874;12.526;2022-12-10T09:51:53;47.20;;;8.50;;
40537;SDS011;27925;41.874;12.526;2022-12-10T09:54:25;48.33;;;8.98;;
40537;SDS011;27925;41.874;12.526;2022-12-10T09:56:54;47.35;;;8.32;;
40537;SDS011;27925;41.874;12.526;2022-12-10T09:59:32;47.35;;;9.02;;
40537;SDS011;27925;41.874;12.526;2022-12-10T10:04:53;38.15;;;8.27;;
40537;SDS011;27925;41.874;12.526;2022-12-10T10:07:36;39.08;;;7.43;;
40537;SDS011;27925;41.874;12.526;2022-12-10T10:10:34;40.75;;;8.02;;
40537;SDS011;27925;41.874;12.526;2022-12-10T10:13:01;47.95;;;8.80;;
40537;SDS011;27925;41.874;12.526;2022-12-10T10:15:53;36.63;;;7.68;;
40537;SDS011;27925;41.874;12.526;2022-12-10T10:18:27;41.10;;;7.80;;
40537;SDS011;27925;41.874;12.526;2022-12-10T10:20:59;39.90;;;6.97;;
40537;SDS011;27925;41.874;12.526;2022-12-10T10:23:25;39.90;;;7.90;;
40537;SDS011;27925;41.874;12.526;2022-12-10T10:25:51;41.42;;;8.77;;
40537;SDS011;27925;41.874;12.526;2022-12-10T10:28:18;41.25;;;8.10;;
40537;SDS011;27925;41.874;12.526;2022-12-10T10:30:47;38.75;;;8.90;;
40537;SDS011;27925;41.874;12.526;2022-12-10T10:33:14;39.83;;;7.72;;
40537;SDS011;27925;41.874;12.526;2022-12-10T10:38:22;28.17;;;6.15;;
40537;SDS011;27925;41.874;12.526;2022-12-10T10:40:57;33.50;;;6.95;;
40537;SDS011;27925;41.874;12.526;2022-12-10T10:43:41;30.50;;;6.82;;
40537;SDS011;27925;41.874;12.526;2022-12-10T10:46:14;25.98;;;6.47;;
40537;SDS011;27925;41.874;12.526;2022-12-10T10:48:42;32.95;;;6.32;;
40537;SDS011;27925;41.874;12.526;2022-12-10T10:53:43;32.78;;;6.75;;
40537;SDS011;27925;41.874;12.526;2022-12-10T11:01:23;34.20;;;6.32;;
40537;SDS011;27925;41.874;12.526;2022-12-10T11:03:57;29.25;;;5.80;;
40537;SDS011;27925;41.874;12.526;2022-12-10T11:06:24;32.25;;;7.40;;
40537;SDS011;27925;41.874;12.526;2022-12-10T11:08:51;29.65;;;6.75;;
40537;SDS011;27925;41.874;12.526;2022-12-10T11:11:39;37.40;;;6.55;;
40537;SDS011;27925;41.874;12.526;2022-12-10T11:19:36;38.55;;;7.47;;
40537;SDS011;27925;41.874;12.526;2022-12-10T11:22:15;36.27;;;8.40;;
40537;SDS011;27925;41.874;12.526;2022-12-10T11:24:42;46.92;;;8.48;;
40537;SDS011;27925;41.874;12.526;2022-12-10T11:27:09;38.53;;;7.85;;
40537;SDS011;27925;41.874;12.526;2022-12-10T11:35:39;49.67;;;8.02;;
40537;SDS011;27925;41.874;12.526;2022-12-10T11:41:16;60.38;;;10.77;;
40537;SDS011;27925;41.874;12.526;2022-12-10T11:49:28;68.35;;;10.35;;
40537;SDS011;27925;41.874;12.526;2022-12-10T12:00:25;49.80;;;9.55;;
40537;SDS011;27925;41.874;12.526;2022-12-10T12:17:09;50.70;;;9.13;;
40537;SDS011;27925;41.874;12.526;2022-12-10T12:19:46;62.03;;;10.90;;
40537;SDS011;27925;41.874;12.526;2022-12-10T12:22:28;56.35;;;9.80;;
40537;SDS011;27925;41.874;12.526;2022-12-10T12:25:03;69.28;;;10.52;;
40537;SDS011;27925;41.874;12.526;2022-12-10T12:27:39;64.28;;;10.15;;
40537;SDS011;27925;41.874;12.526;2022-12-10T12:30:17;60.83;;;10.25;;
40537;SDS011;27925;41.874;12.526;2022-12-10T12:46:38;9.75;;;2.65;;
40537;SDS011;27925;41.874;12.526;2022-12-10T12:49:16;32.42;;;16.55;;
40537;SDS011;27925;41.874;12.526;2022-12-10T12:51:53;12.85;;;4.35;;
40537;SDS011;27925;41.874;12.526;2022-12-10T12:54:21;11.38;;;3.03;;
40537;SDS011;27925;41.874;12.526;2022-12-10T12:56:55;17.45;;;5.70;;
40537;SDS011;27925;41.874;12.526;2022-12-10T12:59:31;19.08;;;4.88;;
40537;SDS011;27925;41.874;12.526;2022-12-10T13:02:26;10.40;;;2.55;;
40537;SDS011;27925;41.874;12.526;2022-12-10T13:10:53;9.10;;;2.78;;
40537;SDS011;27925;41.874;12.526;2022-12-10T13:25:10;9.82;;;2.53;;
40537;SDS011;27925;41.874;12.526;2022-12-10T13:42:34;15.52;;;2.95;;
40537;SDS011;27925;41.874;12.526;2022-12-10T13:47:46;13.07;;;2.97;;
40537;SDS011;27925;41.874;12.526;2022-12-10T13:55:46;15.27;;;3.80;;
40537;SDS011;27925;41.874;12.526;2022-12-10T13:58:50;13.15;;;3.60;;
40537;SDS011;27925;41.874;12.526;2022-12-10T14:06:58;17.33;;;3.40;;
40537;SDS011;27925;41.874;12.526;2022-12-10T14:09:25;16.70;;;4.68;;
40537;SDS011;27925;41.874;12.526;2022-12-10T14:12:04;16.33;;;3.95;;
40537;SDS011;27925;41.874;12.526;2022-12-10T14:14:37;19.40;;;4.65;;
40537;SDS011;27925;41.874;12.526;2022-12-10T14:17:15;17.05;;;5.05;;
40537;SDS011;27925;41.874;12.526;2022-12-10T14:19:45;20.33;;;4.50;;
40537;SDS011;27925;41.874;12.526;2022-12-10T14:22:17;18.30;;;4.38;;
40537;SDS011;27925;41.874;12.526;2022-12-10T14:25:17;16.25;;;3.90;;
40537;SDS011;27925;41.874;12.526;2022-12-10T14:27:51;15.90;;;4.07;;
40537;SDS011;27925;41.874;12.526;2022-12-10T14:30:19;18.00;;;3.80;;
40537;SDS011;27925;41.874;12.526;2022-12-10T14:32:47;15.60;;;3.28;;
40537;SDS011;27925;41.874;12.526;2022-12-10T14:35:22;18.90;;;4.20;;
40537;SDS011;27925;41.874;12.526;2022-12-10T14:37:49;16.00;;;4.47;;
40537;SDS011;27925;41.874;12.526;2022-12-10T14:40:19;20.38;;;5.07;;
40537;SDS011;27925;41.874;12.526;2022-12-10T14:42:50;21.08;;;4.07;;
40537;SDS011;27925;41.874;12.526;2022-12-10T14:45:29;19.00;;;4.28;;
40537;SDS011;27925;41.874;12.526;2022-12-10T14:48:05;16.85;;;3.67;;
40537;SDS011;27925;41.874;12.526;2022-12-10T14:50:34;14.45;;;3.92;;
40537;SDS011;27925;41.874;12.526;2022-12-10T14:53:00;19.08;;;4.20;;
40537;SDS011;27925;41.874;12.526;2022-12-10T14:55:25;19.70;;;5.53;;
40537;SDS011;27925;41.874;12.526;2022-12-10T14:57:57;25.98;;;6.60;;
40537;SDS011;27925;41.874;12.526;2022-12-10T15:00:26;18.00;;;4.28;;
40537;SDS011;27925;41.874;12.526;2022-12-10T15:02:57;14.68;;;3.72;;
40537;SDS011;27925;41.874;12.526;2022-12-10T15:05:34;15.73;;;3.83;;
40537;SDS011;27925;41.874;12.526;2022-12-10T15:08:06;15.02;;;3.50;;
40537;SDS011;27925;41.874;12.526;2022-12-10T15:10:38;12.40;;;3.20;;
40537;SDS011;27925;41.874;12.526;2022-12-10T15:13:29;17.15;;;8.25;;
40537;SDS011;27925;41.874;12.526;2022-12-10T15:16:00;9.98;;;3.05;;
40537;SDS011;27925;41.874;12.526;2022-12-10T15:18:34;9.52;;;3.00;;
40537;SDS011;27925;41.874;12.526;2022-12-10T15:23:42;10.23;;;2.75;;
40537;SDS011;27925;41.874;12.526;2022-12-10T15:28:44;18.27;;;9.80;;
40537;SDS011;27925;41.874;12.526;2022-12-10T15:31:21;10.95;;;5.25;;
40537;SDS011;27925;41.874;12.526;2022-12-10T15:47:08;8.88;;;2.67;;
40537;SDS011;27925;41.874;12.526;2022-12-10T15:49:41;12.02;;;2.95;;
40537;SDS011;27925;41.874;12.526;2022-12-10T15:52:14;7.18;;;2.58;;
40537;SDS011;27925;41.874;12.526;2022-12-10T15:54:42;10.15;;;3.22;;
40537;SDS011;27925;41.874;12.526;2022-12-10T15:57:14;10.00;;;2.70;;
40537;SDS011;27925;41.874;12.526;2022-12-10T15:59:43;7.57;;;1.90;;
40537;SDS011;27925;41.874;12.526;2022-12-10T16:04:56;5.00;;;1.60;;
40537;SDS011;27925;41.874;12.526;2022-12-10T16:07:22;4.82;;;1.50;;
40537;SDS011;27925;41.874;12.526;2022-12-10T16:09:47;9.23;;;2.80;;
40537;SDS011;27925;41.874;12.526;2022-12-10T16:12:14;6.57;;;2.88;;
40537;SDS011;27925;41.874;12.526;2022-12-10T16:14:42;6.28;;;2.40;;
40537;SDS011;27925;41.874;12.526;2022-12-10T16:17:16;5.13;;;2.30;;
40537;SDS011;27925;41.874;12.526;2022-12-10T16:19:42;6.72;;;2.40;;
40537;SDS011;27925;41.874;12.526;2022-12-10T16:22:08;5.90;;;2.55;;
40537;SDS011;27925;41.874;12.526;2022-12-10T16:24:34;6.90;;;2.22;;
40537;SDS011;27925;41.874;12.526;2022-12-10T16:27:00;5.25;;;2.15;;
40537;SDS011;27925;41.874;12.526;2022-12-10T16:29:25;6.28;;;2.40;;
40537;SDS011;27925;41.874;12.526;2022-12-10T16:31:51;7.53;;;2.00;;
40537;SDS011;27925;41.874;12.526;2022-12-10T16:34:17;6.35;;;2.10;;
40537;SDS011;27925;41.874;12.526;2022-12-10T16:36:42;5.65;;;2.35;;
40537;SDS011;27925;41.874;12.526;2022-12-10T16:39:08;7.82;;;2.40;;
40537;SDS011;27925;41.874;12.526;2022-12-10T16:41:34;5.63;;;2.50;;
40537;SDS011;27925;41.874;12.526;2022-12-10T16:44:00;5.85;;;2.70;;
40537;SDS011;27925;41.874;12.526;2022-12-10T16:46:26;4.22;;;2.38;;
40537;SDS011;27925;41.874;12.526;2022-12-10T16:48:52;8.13;;;2.47;;
40537;SDS011;27925;41.874;12.526;2022-12-10T16:51:24;6.80;;;2.60;;
40537;SDS011;27925;41.874;12.526;2022-12-10T16:53:54;7.05;;;2.85;;
40537;SDS011;27925;41.874;12.526;2022-12-10T16:56:20;6.43;;;2.70;;
40537;SDS011;27925;41.874;12.526;2022-12-10T16:58:46;5.97;;;2.33;;
40537;SDS011;27925;41.874;12.526;2022-12-10T17:01:30;5.43;;;2.75;;
40537;SDS011;27925;41.874;12.526;2022-12-10T17:03:56;7.20;;;2.60;;
40537;SDS011;27925;41.874;12.526;2022-12-10T17:06:23;9.50;;;4.28;;
40537;SDS011;27925;41.874;12.526;2022-12-10T17:08:49;7.07;;;3.72;;
40537;SDS011;27925;41.874;12.526;2022-12-10T17:16:52;5.55;;;2.60;;